Little Wind — 5IM938 — position and weather

sailwx.info

Track history (hours):
 
Tides and Currents Weather Stations Pressure Air Temp Water Temp Dewpoint Dewpoint Depression Visibility Wind Speed Wind Dir Waves Ship Positions

Little Wind

Last reported at 2018-Jul-18 09:05 UTC. Time now 2018-Aug-14 23:42 UTC.
Position N 45°18' E 036°30'.
Warning: this ship's position is 27 days out of date.

Length 113 m; draft 3.9 m.

Type: Cargo ship. MMSI: 677083800.

Date/timePositionNaut miles runAvg speedWind from/ knotsBaromVisibWave heightAir tempDewpointWater temp
2018-Jul-18 09:05N 45°18' E 036°30'1 3.8
2018-Jul-18 08:47N 45°19' E 036°32'1 4.1
2018-Jul-18 08:30N 45°19' E 036°33'2 3.7
2018-Jul-18 08:00N 45°20' E 036°36'2 3.6
2018-Jul-18 07:30N 45°21' E 036°38'2 4.1
2018-Jul-18 07:00N 45°22' E 036°40'3 5.1
2018-Jul-18 06:30N 45°25' E 036°41'2 3.8
2018-Jul-18 06:00N 45°27' E 036°40'1 2.7
2018-Jul-18 05:30N 45°28' E 036°40'1 1.4
2018-Jul-18 04:59N 45°28' E 036°39'0 0.0
2018-Jul-18 04:29N 45°28' E 036°39'0 0.0
2018-Jul-17 08:12N 45°28' E 036°39'0 0.0
2018-Jul-17 07:45N 45°28' E 036°39'0 0.0
2018-Jul-17 07:30N 45°28' E 036°39'0 0.0
2018-Jul-17 06:57N 45°28' E 036°39'1 0.1
2018-Jul-16 17:25N 45°29' E 036°40'2 4.8
2018-Jul-16 17:00N 45°29' E 036°43'  
Track history (hours):
 
Tides and Currents Weather Stations Pressure Air Temp Water Temp Dewpoint Dewpoint Depression Visibility Wind Speed Wind Dir Waves Ship Positions

Little Wind

Last reported at 2018-Jul-18 09:05 UTC. Time now 2018-Aug-14 23:42 UTC.
Position N 45°18' E 036°30'.
Warning: this ship's position is 27 days out of date.

Length 113 m; draft 3.9 m.

Type: Cargo ship. MMSI: 677083800.

Date/timePositionNaut miles runAvg speedWind from/ knotsBaromVisibWave heightAir tempDewpointWater temp
2018-Jul-18 09:05N 45°18' E 036°30'1 3.8
2018-Jul-18 08:47N 45°19' E 036°32'1 4.1
2018-Jul-18 08:30N 45°19' E 036°33'2 3.7
2018-Jul-18 08:00N 45°20' E 036°36'2 3.6
2018-Jul-18 07:30N 45°21' E 036°38'2 4.1
2018-Jul-18 07:00N 45°22' E 036°40'3 5.1
2018-Jul-18 06:30N 45°25' E 036°41'2 3.8
2018-Jul-18 06:00N 45°27' E 036°40'1 2.7
2018-Jul-18 05:30N 45°28' E 036°40'1 1.4
2018-Jul-18 04:59N 45°28' E 036°39'0 0.0
2018-Jul-18 04:29N 45°28' E 036°39'0 0.0
2018-Jul-17 08:12N 45°28' E 036°39'0 0.0
2018-Jul-17 07:45N 45°28' E 036°39'0 0.0
2018-Jul-17 07:30N 45°28' E 036°39'0 0.0
2018-Jul-17 06:57N 45°28' E 036°39'1 0.1
2018-Jul-16 17:25N 45°29' E 036°40'2 4.8
2018-Jul-16 17:00N 45°29' E 036°43'  

Dump ship's entire track history